createdAt,value
2023-04-24T00:02:04.441Z,99672.66
2023-04-24T00:04:33.028Z,99672.66
2023-04-24T00:07:01.063Z,99669.84
2023-04-24T00:09:30.270Z,99677.94
2023-04-24T00:11:58.417Z,99681.25
2023-04-24T00:14:26.389Z,99682.78
2023-04-24T00:16:54.115Z,99675.00
2023-04-24T00:19:23.512Z,99680.66
2023-04-24T00:21:51.623Z,99670.06
2023-04-24T00:24:19.455Z,99672.56
2023-04-24T00:26:48.689Z,99677.00
2023-04-24T00:29:16.340Z,99678.69
2023-04-24T00:31:44.016Z,99675.06
2023-04-24T00:34:12.866Z,99675.34
2023-04-24T00:36:41.340Z,99684.34
2023-04-24T00:39:09.923Z,99682.06
2023-04-24T00:41:37.852Z,99674.13
2023-04-24T00:44:06.955Z,99675.63
2023-04-24T00:46:34.732Z,99683.06
2023-04-24T00:49:02.428Z,99675.78
2023-04-24T00:51:31.922Z,99675.78
2023-04-24T00:53:59.620Z,99677.78
2023-04-24T00:56:27.263Z,99680.75
2023-04-24T00:58:54.960Z,99674.97
2023-04-24T01:01:24.435Z,99679.81
2023-04-24T01:03:53.768Z,99686.88
2023-04-24T01:06:21.985Z,99677.16
2023-04-24T01:08:50.108Z,99688.41
2023-04-24T01:11:17.927Z,99673.81
2023-04-24T01:13:45.651Z,99693.31
2023-04-24T01:16:13.310Z,99691.34
2023-04-24T01:18:42.506Z,99692.16
2023-04-24T01:21:10.886Z,99698.44
2023-04-24T01:23:39.990Z,99696.94
2023-04-24T01:26:07.667Z,99702.06
2023-04-24T01:28:35.390Z,99695.44
2023-04-24T01:31:03.148Z,99699.75
2023-04-24T01:33:30.926Z,99694.63
2023-04-24T01:35:58.826Z,99699.53
2023-04-24T01:38:26.559Z,99694.41
2023-04-24T01:40:55.764Z,99698.47
2023-04-24T01:43:23.832Z,99698.47
2023-04-24T01:45:51.505Z,99701.50
2023-04-24T01:48:19.242Z,99696.50
2023-04-24T01:50:46.941Z,99681.25
2023-04-24T01:53:14.584Z,99689.66
2023-04-24T01:55:42.533Z,99690.16
2023-04-24T01:58:11.824Z,99683.75
2023-04-24T02:00:39.795Z,99692.03
2023-04-24T02:03:07.629Z,99687.97
2023-04-24T02:05:35.432Z,99682.53
2023-04-24T02:08:03.104Z,99686.97
2023-04-24T02:10:30.868Z,99681.69
2023-04-24T02:13:00.653Z,99689.94
2023-04-24T02:15:29.882Z,99687.59
2023-04-24T02:17:57.645Z,99691.44
2023-04-24T02:20:25.716Z,99688.63
2023-04-24T02:22:53.330Z,99684.50
2023-04-24T02:25:21.169Z,99691.06
2023-04-24T02:27:48.865Z,99688.94
2023-04-24T02:30:16.561Z,99694.75
2023-04-24T02:32:46.016Z,99686.97
2023-04-24T02:35:14.088Z,99684.03
2023-04-24T02:37:41.993Z,99684.41
2023-04-24T02:40:11.498Z,99686.06
2023-04-24T02:42:39.143Z,99685.75
2023-04-24T02:45:07.752Z,99683.28
2023-04-24T02:47:35.480Z,99678.59
2023-04-24T02:50:05.195Z,99680.25
2023-04-24T02:52:32.920Z,99674.75
2023-04-24T02:55:00.640Z,99686.31
2023-04-24T02:57:28.288Z,99687.97
2023-04-24T02:59:55.947Z,99690.28
2023-04-24T03:02:23.767Z,99686.97
2023-04-24T03:04:51.434Z,99688.94
2023-04-24T03:07:21.820Z,99691.22
2023-04-24T03:09:49.598Z,99686.03
2023-04-24T03:12:18.695Z,99687.84
2023-04-24T03:14:46.492Z,99691.97
2023-04-24T03:17:14.116Z,99687.06
2023-04-24T03:19:42.029Z,99683.13
2023-04-24T03:22:10.218Z,99691.22
2023-04-24T03:24:39.355Z,99694.00
2023-04-24T03:27:07.128Z,99699.75
2023-04-24T03:29:34.803Z,99699.06
2023-04-24T03:32:02.601Z,99697.59
2023-04-24T03:34:30.284Z,99694.09
2023-04-24T03:36:57.974Z,99700.31
2023-04-24T03:39:26.242Z,99695.38
2023-04-24T03:41:55.531Z,99698.31
2023-04-24T03:44:23.159Z,99699.28
2023-04-24T03:46:50.860Z,99697.63
2023-04-24T03:49:18.464Z,99702.38
2023-04-24T03:51:46.120Z,99696.44
2023-04-24T03:54:14.718Z,99699.75
2023-04-24T03:56:42.381Z,99699.06
2023-04-24T03:59:11.469Z,99707.44
2023-04-24T04:01:41.684Z,99701.31
2023-04-24T04:04:11.188Z,99717.47
2023-04-24T04:06:38.958Z,99713.31
2023-04-24T04:09:06.712Z,99702.22
2023-04-24T04:11:34.369Z,99703.19
2023-04-24T04:14:02.010Z,99727.25
2023-04-24T04:16:31.131Z,99717.81
2023-04-24T04:18:59.507Z,99732.25
2023-04-24T04:21:28.074Z,99731.41
2023-04-24T04:23:55.897Z,99723.63
2023-04-24T04:26:26.485Z,99731.69
2023-04-24T04:28:54.214Z,99739.78
2023-04-24T04:31:22.299Z,99735.84
2023-04-24T04:33:51.423Z,99733.91
2023-04-24T04:36:19.661Z,99731.25
2023-04-24T04:38:47.601Z,99737.22
2023-04-24T04:41:15.322Z,99747.09
2023-04-24T04:43:43.706Z,99750.56
2023-04-24T04:46:11.741Z,99746.13
2023-04-24T04:48:39.541Z,99744.47
2023-04-24T04:51:08.940Z,99756.53
2023-04-24T04:53:37.073Z,99760.31
2023-04-24T04:56:05.088Z,99758.66
2023-04-24T04:58:32.769Z,99769.75
2023-04-24T05:01:00.453Z,99770.03
2023-04-24T05:03:28.254Z,99768.25
2023-04-24T05:05:56.061Z,99768.66
2023-04-24T05:08:27.450Z,99766.84
2023-04-24T05:10:55.828Z,99769.81
2023-04-24T05:13:35.754Z,99780.63
2023-04-24T05:16:06.692Z,99774.00
2023-04-24T05:18:34.382Z,99784.97
2023-04-24T05:21:02.420Z,99784.25
2023-04-24T05:23:31.563Z,99790.09
2023-04-24T05:25:59.426Z,99788.97
2023-04-24T05:28:29.410Z,99793.09
2023-04-24T05:30:57.515Z,99788.66
2023-04-24T05:33:25.276Z,99783.97
2023-04-24T05:35:53.063Z,99789.53
2023-04-24T05:38:20.907Z,99791.19
2023-04-24T05:40:49.932Z,99796.47
2023-04-24T05:43:17.585Z,99794.53
2023-04-24T05:45:45.285Z,99805.38
2023-04-24T05:48:12.985Z,99803.19
2023-04-24T05:50:40.975Z,99792.22
2023-04-24T05:53:09.018Z,99801.66
2023-04-24T05:55:36.888Z,99804.03
2023-04-24T05:58:06.105Z,99802.75
2023-04-24T06:00:34.102Z,99804.56
2023-04-24T06:03:02.167Z,99805.97
2023-04-24T06:05:30.125Z,99815.41
2023-04-24T06:07:58.252Z,99807.91
2023-04-24T06:10:26.087Z,99808.22
2023-04-24T06:12:53.825Z,99810.19
2023-04-24T06:15:22.964Z,99809.19
2023-04-24T06:17:50.708Z,99814.47
2023-04-24T06:20:18.334Z,99804.03
2023-04-24T06:22:46.021Z,99803.66
2023-04-24T06:25:13.653Z,99814.22
2023-04-24T06:27:41.472Z,99812.56
2023-04-24T06:30:10.549Z,99825.88
2023-04-24T06:32:39.748Z,99813.53
2023-04-24T06:35:09.176Z,99821.56
2023-04-24T06:37:36.973Z,99817.28
2023-04-24T06:40:07.770Z,99818.53
2023-04-24T06:42:36.192Z,99817.38
2023-04-24T06:45:04.551Z,99827.13
2023-04-24T06:47:32.337Z,99826.13
2023-04-24T06:50:01.401Z,99826.03
2023-04-24T06:52:29.039Z,99833.94
2023-04-24T06:55:02.318Z,99827.94
2023-04-24T06:57:30.039Z,99832.69
2023-04-24T06:59:57.853Z,99825.31
2023-04-24T07:02:25.785Z,99831.88
2023-04-24T07:04:53.866Z,99833.22
2023-04-24T07:07:25.645Z,99831.56
2023-04-24T07:09:53.456Z,99830.22
2023-04-24T07:12:22.717Z,99833.78
2023-04-24T07:14:50.622Z,99834.94
2023-04-24T07:17:18.226Z,99836.31
2023-04-24T07:19:46.389Z,99839.06
2023-04-24T07:22:17.874Z,99840.03
2023-04-24T07:24:47.119Z,99838.50
2023-04-24T07:27:16.075Z,99849.06
2023-04-24T07:29:44.272Z,99851.44
2023-04-24T07:32:12.313Z,99849.88
2023-04-24T07:34:40.062Z,99856.53
2023-04-24T07:37:07.718Z,99863.63
2023-04-24T07:39:35.458Z,99868.75
2023-04-24T07:42:04.600Z,99873.06
2023-04-24T07:44:33.132Z,99877.66
2023-04-24T07:47:01.235Z,99882.66
2023-04-24T07:49:29.495Z,99875.41
2023-04-24T07:51:57.176Z,99882.88
2023-04-24T07:54:24.873Z,99887.06
2023-04-24T07:56:52.594Z,99889.41
2023-04-24T07:59:21.659Z,99881.22
2023-04-24T08:01:49.378Z,99894.44
2023-04-24T08:04:17.333Z,99900.66
2023-04-24T08:06:45.220Z,99903.03
2023-04-24T08:09:12.961Z,99904.38
2023-04-24T08:11:40.647Z,99909.25
2023-04-24T08:14:08.396Z,99907.84
2023-04-24T08:16:37.622Z,99918.41
2023-04-24T08:19:05.366Z,99916.03
2023-04-24T08:21:33.106Z,99916.50
2023-04-24T08:24:00.820Z,99923.44
2023-04-24T08:26:28.567Z,99925.66
2023-04-24T08:28:56.317Z,99937.63
2023-04-24T08:31:25.959Z,99937.47
2023-04-24T08:33:55.145Z,99937.31
2023-04-24T08:36:26.371Z,99942.31
2023-04-24T08:38:58.334Z,99953.44
2023-04-24T08:41:27.188Z,99948.69
2023-04-24T08:43:56.054Z,99950.66
2023-04-24T08:46:24.286Z,99947.03
2023-04-24T08:48:55.877Z,99953.44
2023-04-24T08:51:23.686Z,99950.13
2023-04-24T08:53:51.772Z,99956.75
2023-04-24T08:56:19.618Z,99965.66
2023-04-24T08:58:47.680Z,99959.84
2023-04-24T09:01:15.487Z,99977.38
2023-04-24T09:03:43.252Z,99975.81
2023-04-24T09:06:13.033Z,99976.94
2023-04-24T09:08:43.201Z,99973.47
2023-04-24T09:11:11.270Z,99986.69
2023-04-24T09:13:39.025Z,100006.44
2023-04-24T09:16:07.191Z,99999.34
2023-04-24T09:18:36.185Z,99995.75
2023-04-24T09:21:05.355Z,100023.84
2023-04-24T09:23:34.727Z,100025.38
2023-04-24T09:26:05.852Z,100033.47
2023-04-24T09:28:37.318Z,100043.88
2023-04-24T09:31:06.566Z,100052.72
2023-04-24T09:33:34.430Z,100056.34
2023-04-24T09:36:02.225Z,100076.78
2023-04-24T09:38:35.502Z,100077.19
2023-04-24T09:41:04.619Z,100089.69
2023-04-24T09:43:32.754Z,100088.56
2023-04-24T09:46:02.088Z,100096.91
2023-04-24T09:48:33.850Z,100098.03
2023-04-24T09:51:02.987Z,100105.78
2023-04-24T09:53:31.086Z,100116.91
2023-04-24T09:56:04.718Z,100118.84
2023-04-24T09:58:32.376Z,100127.19
2023-04-24T10:01:00.217Z,100129.56
2023-04-24T10:03:29.120Z,100131.09
2023-04-24T10:06:00.816Z,100131.91
2023-04-24T10:08:28.815Z,100138.88
2023-04-24T10:10:56.566Z,100142.47
2023-04-24T10:13:25.923Z,100145.69
2023-04-24T10:15:53.992Z,100153.59
2023-04-24T10:18:23.344Z,100144.56
2023-04-24T10:20:51.195Z,100146.38
2023-04-24T10:23:20.340Z,100153.88
2023-04-24T10:25:48.059Z,100152.78
2023-04-24T10:28:15.808Z,100161.09
2023-04-24T10:30:45.300Z,100165.97
2023-04-24T10:33:13.594Z,100173.06
2023-04-24T10:35:43.882Z,100187.25
2023-04-24T10:38:14.389Z,100189.88
2023-04-24T10:40:42.172Z,100191.84
2023-04-24T10:43:12.471Z,100199.31
2023-04-24T10:45:41.016Z,100204.97
2023-04-24T10:48:14.788Z,100215.00
2023-04-24T10:50:47.848Z,100218.00
2023-04-24T10:53:18.979Z,100221.63
2023-04-24T10:55:48.666Z,100234.97
2023-04-24T10:58:17.748Z,100238.72
2023-04-24T11:00:46.286Z,100244.09
2023-04-24T11:03:29.302Z,100249.13
2023-04-24T11:06:01.928Z,100254.13
2023-04-24T11:08:34.473Z,100254.81
2023-04-24T11:11:10.297Z,100255.53
2023-04-24T11:14:07.360Z,100253.75
2023-04-24T11:16:45.388Z,100257.34
2023-04-24T11:19:24.559Z,100249.44
2023-04-24T11:21:58.393Z,100273.28
2023-04-24T11:24:31.687Z,100282.47
2023-04-24T11:27:00.794Z,100288.72
2023-04-24T11:29:41.732Z,100283.28
2023-04-24T11:32:26.550Z,100280.81
2023-04-24T11:34:56.862Z,100303.38
2023-04-24T11:37:26.112Z,100304.19
2023-04-24T11:39:58.462Z,100300.00
2023-04-24T11:42:26.992Z,100312.50
2023-04-24T11:44:56.552Z,100325.25
2023-04-24T11:47:30.885Z,100323.00
2023-04-24T11:50:01.111Z,100329.00
2023-04-24T11:52:29.634Z,100321.66
2023-04-24T11:54:57.550Z,100332.09
2023-04-24T11:57:28.793Z,100337.09
2023-04-24T11:59:56.934Z,100329.63
2023-04-24T12:02:25.448Z,100337.69
2023-04-24T12:04:53.995Z,100348.09
2023-04-24T12:07:24.203Z,100348.81
2023-04-24T12:09:58.041Z,100341.59
2023-04-24T12:12:27.968Z,100353.94
2023-04-24T12:14:57.503Z,100360.06
2023-04-24T12:17:30.114Z,100364.50
2023-04-24T12:20:03.185Z,100351.44
2023-04-24T12:22:46.402Z,100363.66
2023-04-24T12:25:14.634Z,100364.38
2023-04-24T12:27:42.524Z,100388.13
2023-04-24T12:30:13.662Z,100369.09
2023-04-24T12:32:44.459Z,100375.34
2023-04-24T12:35:12.125Z,100375.19
2023-04-24T12:37:45.834Z,100378.03
2023-04-24T12:40:15.727Z,100379.03
2023-04-24T12:42:45.547Z,100370.13
2023-04-24T12:45:13.952Z,100382.03
2023-04-24T12:47:42.564Z,100385.13
2023-04-24T12:50:11.361Z,100390.03
2023-04-24T12:52:41.029Z,100389.03
2023-04-24T12:55:10.053Z,100389.56
2023-04-24T12:57:39.297Z,100394.41
2023-04-24T13:00:08.834Z,100403.56
2023-04-24T13:02:37.524Z,100403.56
2023-04-24T13:05:06.081Z,100408.03
2023-04-24T13:07:33.972Z,100411.75
2023-04-24T13:10:03.174Z,100410.78
2023-04-24T13:12:31.060Z,100412.56
2023-04-24T13:15:00.772Z,100413.31
2023-04-24T13:17:28.517Z,100419.16
2023-04-24T13:19:56.824Z,100408.56
2023-04-24T13:22:24.467Z,100425.00
2023-04-24T13:24:52.122Z,100410.00
2023-04-24T13:27:21.272Z,100426.09
2023-04-24T13:29:48.926Z,100434.56
2023-04-24T13:32:16.704Z,100430.78
2023-04-24T13:34:44.808Z,100432.94
2023-04-24T13:37:12.537Z,100443.78
2023-04-24T13:39:40.235Z,100448.19
2023-04-24T13:42:07.935Z,100458.31
2023-04-24T13:44:37.362Z,100456.38
2023-04-24T13:47:05.116Z,100452.06
2023-04-24T13:49:32.912Z,100456.25
2023-04-24T13:52:00.665Z,100455.47
2023-04-24T13:54:28.465Z,100443.38
2023-04-24T13:56:59.627Z,100451.19
2023-04-24T13:59:27.876Z,100446.94
2023-04-24T14:01:57.109Z,100455.72
2023-04-24T14:04:25.349Z,100465.13
2023-04-24T14:06:53.301Z,100444.53
2023-04-24T14:09:21.019Z,100462.56
2023-04-24T14:11:48.791Z,100462.81
2023-04-24T14:14:16.875Z,100460.31
2023-04-24T14:16:44.520Z,100462.81
2023-04-24T14:19:13.608Z,100456.88
2023-04-24T14:21:41.296Z,100454.81
2023-04-24T14:24:10.239Z,100455.41
2023-04-24T14:26:37.927Z,100464.59
2023-04-24T14:29:14.135Z,100458.78
2023-04-24T14:31:42.800Z,100463.22
2023-04-24T14:34:10.673Z,100471.00
2023-04-24T14:36:39.836Z,100480.06
2023-04-24T14:39:08.539Z,100467.22
2023-04-24T14:41:36.862Z,100472.91
2023-04-24T14:44:05.081Z,100498.75
2023-04-24T14:46:33.080Z,100509.41
2023-04-24T14:49:00.875Z,100500.59
2023-04-24T14:51:31.343Z,100499.94
2023-04-24T14:54:00.557Z,100503.13
2023-04-24T14:56:28.341Z,100499.13
2023-04-24T14:58:56.047Z,100511.25
2023-04-24T15:01:24.974Z,100514.28
2023-04-24T15:04:14.747Z,100511.78
2023-04-24T15:06:42.722Z,100516.22
2023-04-24T15:09:10.723Z,100512.47
2023-04-24T15:11:38.724Z,100514.97
2023-04-24T15:14:06.517Z,100527.69
2023-04-24T15:16:34.262Z,100506.19
2023-04-24T15:19:02.436Z,100521.84
2023-04-24T15:21:31.714Z,100516.56
2023-04-24T15:23:59.398Z,100514.84
2023-04-24T15:26:27.342Z,100525.81
2023-04-24T15:28:55.415Z,100521.78
2023-04-24T15:31:23.994Z,100513.19
2023-04-24T15:33:51.789Z,100520.44
2023-04-24T15:36:20.030Z,100522.94
2023-04-24T15:38:49.214Z,100512.94
2023-04-24T15:41:16.893Z,100521.03
2023-04-24T15:43:44.812Z,100532.53
2023-04-24T15:46:12.879Z,100528.00
2023-04-24T15:48:42.183Z,100528.06
2023-04-24T15:51:09.971Z,100524.63
2023-04-24T15:53:37.710Z,100532.59
2023-04-24T15:56:06.964Z,100522.06
2023-04-24T15:58:34.964Z,100520.25
2023-04-24T16:01:02.673Z,100519.19
2023-04-24T16:03:30.565Z,100527.69
2023-04-24T16:05:58.537Z,100540.19
2023-04-24T16:08:26.239Z,100535.66
2023-04-24T16:10:53.910Z,100533.25
2023-04-24T16:13:22.947Z,100553.28
2023-04-24T16:15:51.806Z,100547.09
2023-04-24T16:18:19.519Z,100547.63
2023-04-24T16:20:47.225Z,100544.75
2023-04-24T16:23:15.941Z,100543.34
2023-04-24T16:25:43.584Z,100540.13
2023-04-24T16:28:12.148Z,100544.16
2023-04-24T16:30:41.271Z,100545.84
2023-04-24T16:33:10.834Z,100546.69
2023-04-24T16:35:38.586Z,100547.41
2023-04-24T16:38:06.209Z,100554.09
2023-04-24T16:40:33.876Z,100552.91
2023-04-24T16:43:01.630Z,100541.53
2023-04-24T16:45:29.332Z,100549.78
2023-04-24T16:47:58.415Z,100549.94
2023-04-24T16:50:26.154Z,100553.00
2023-04-24T16:52:53.852Z,100555.94
2023-04-24T16:55:21.516Z,100549.75
2023-04-24T16:57:49.241Z,100553.34
2023-04-24T17:00:17.800Z,100555.81
2023-04-24T17:02:48.509Z,100558.28
2023-04-24T17:05:19.369Z,100550.03
2023-04-24T17:07:47.064Z,100560.19
2023-04-24T17:10:14.734Z,100567.66
2023-04-24T17:12:42.522Z,100558.41
2023-04-24T17:15:11.104Z,100559.38
2023-04-24T17:17:38.853Z,100567.56
2023-04-24T17:20:18.645Z,100571.88
2023-04-24T17:22:51.624Z,100569.25
2023-04-24T17:25:19.343Z,100564.78
2023-04-24T17:27:47.003Z,100566.34
2023-04-24T17:30:15.776Z,100568.53
2023-04-24T17:32:43.524Z,100580.19
2023-04-24T17:35:11.550Z,100578.53
2023-04-24T17:37:39.763Z,100577.69
2023-04-24T17:40:10.808Z,100582.28
2023-04-24T17:42:41.354Z,100588.06
2023-04-24T17:45:10.327Z,100586.66
2023-04-24T17:47:38.098Z,100579.94
2023-04-24T17:50:06.575Z,100580.91
2023-04-24T17:52:34.990Z,100586.19
2023-04-24T17:55:02.665Z,100589.09
2023-04-24T17:57:31.759Z,100593.91
2023-04-24T17:59:59.446Z,100585.28
2023-04-24T18:02:27.346Z,100589.59
2023-04-24T18:04:55.557Z,100594.75
2023-04-24T18:07:23.526Z,100597.41
2023-04-24T18:09:51.223Z,100599.34
2023-04-24T18:12:18.882Z,100602.09
2023-04-24T18:14:47.976Z,100603.06
2023-04-24T18:17:15.725Z,100611.94
2023-04-24T18:19:43.413Z,100605.97
2023-04-24T18:22:11.188Z,100609.31
2023-04-24T18:24:38.802Z,100615.91
2023-04-24T18:27:06.418Z,100609.50
2023-04-24T18:29:34.103Z,100622.09
2023-04-24T18:32:04.855Z,100612.50
2023-04-24T18:34:32.597Z,100618.03
2023-04-24T18:37:00.218Z,100622.59
2023-04-24T18:39:27.956Z,100611.59
2023-04-24T18:41:55.677Z,100622.13
2023-04-24T18:44:23.750Z,100625.97
2023-04-24T18:46:51.730Z,100630.56
2023-04-24T18:49:20.801Z,100632.47
2023-04-24T18:51:54.444Z,100639.91
2023-04-24T18:54:22.414Z,100642.22
2023-04-24T18:56:50.090Z,100651.22
2023-04-24T18:59:17.801Z,100649.78
2023-04-24T19:01:45.485Z,100659.75
2023-04-24T19:04:13.805Z,100652.66
2023-04-24T19:06:42.852Z,100657.94
2023-04-24T19:09:10.506Z,100663.69
2023-04-24T19:11:38.600Z,100662.00
2023-04-24T19:14:07.290Z,100669.91
2023-04-24T19:16:35.107Z,100665.72
2023-04-24T19:19:04.314Z,100669.22
2023-04-24T19:21:33.381Z,100674.75
2023-04-24T19:24:02.576Z,100679.06
2023-04-24T19:26:31.407Z,100682.88
2023-04-24T19:28:59.214Z,100691.50
2023-04-24T19:31:27.296Z,100692.59
2023-04-24T19:33:55.033Z,100685.78
2023-04-24T19:36:23.935Z,100681.34
2023-04-24T19:38:51.837Z,100691.75
2023-04-24T19:41:21.063Z,100681.22
2023-04-24T19:43:49.841Z,100680.50
2023-04-24T19:46:17.552Z,100669.81
2023-04-24T19:48:45.278Z,100676.28
2023-04-24T19:51:13.259Z,100677.59
2023-04-24T19:53:41.273Z,100684.69
2023-04-24T19:56:08.981Z,100683.13
2023-04-24T19:58:38.069Z,100679.78
2023-04-24T20:01:06.249Z,100676.19
2023-04-24T20:03:34.681Z,100677.84
2023-04-24T20:06:02.765Z,100680.63
2023-04-24T20:08:30.734Z,100678.81
2023-04-24T20:10:58.741Z,100675.34
2023-04-24T20:13:27.603Z,100680.38
2023-04-24T20:15:56.674Z,100673.28
2023-04-24T20:18:24.356Z,100674.50
2023-04-24T20:20:54.115Z,100680.50
2023-04-24T20:23:21.810Z,100679.66
2023-04-24T20:25:49.476Z,100672.59
2023-04-24T20:28:17.363Z,100674.38
2023-04-24T20:30:45.154Z,100672.59
2023-04-24T20:33:14.321Z,100675.34
2023-04-24T20:35:42.069Z,100673.06
2023-04-24T20:38:10.951Z,100679.88
2023-04-24T20:40:46.912Z,100680.97
2023-04-24T20:43:24.667Z,100674.97
2023-04-24T20:45:53.533Z,100677.97
2023-04-24T20:48:22.592Z,100675.81
2023-04-24T20:50:50.367Z,100679.41
2023-04-24T20:53:18.083Z,100675.22
2023-04-24T20:55:45.770Z,100683.13
2023-04-24T20:58:13.472Z,100683.84
2023-04-24T21:00:41.168Z,100673.06
2023-04-24T21:03:08.974Z,100677.38
2023-04-24T21:05:38.112Z,100677.63
2023-04-24T21:08:06.007Z,100675.19
2023-04-24T21:10:33.683Z,100677.13
2023-04-24T21:13:01.383Z,100682.53
2023-04-24T21:15:29.374Z,100682.84
2023-04-24T21:17:57.224Z,100677.84
2023-04-24T21:20:25.101Z,100686.72
2023-04-24T21:22:54.142Z,100685.88
2023-04-24T21:25:21.774Z,100684.78
2023-04-24T21:27:49.588Z,100682.84
2023-04-24T21:30:17.317Z,100683.81
2023-04-24T21:32:45.061Z,100681.56
2023-04-24T21:35:12.779Z,100677.25
2023-04-24T21:37:40.461Z,100684.41
2023-04-24T21:40:11.697Z,100687.16
2023-04-24T21:42:39.600Z,100683.78
2023-04-24T21:45:08.392Z,100678.72
2023-04-24T21:47:36.146Z,100676.84
2023-04-24T21:50:04.317Z,100690.97
2023-04-24T21:52:31.957Z,100696.47
2023-04-24T21:54:59.591Z,100694.19
2023-04-24T21:57:29.839Z,100685.66
2023-04-24T21:59:57.513Z,100698.84
2023-04-24T22:02:25.359Z,100693.81
2023-04-24T22:04:56.466Z,100695.50
2023-04-24T22:07:24.593Z,100689.97
2023-04-24T22:09:52.227Z,100693.81
2023-04-24T22:12:20.062Z,100687.59
2023-04-24T22:14:49.258Z,100691.28
2023-04-24T22:17:17.257Z,100696.78
2023-04-24T22:19:44.974Z,100691.53
2023-04-24T22:22:12.605Z,100700.97
2023-04-24T22:24:40.428Z,100697.16
2023-04-24T22:27:08.326Z,100692.97
2023-04-24T22:29:36.305Z,100695.94
2023-04-24T22:32:05.516Z,100702.19
2023-04-24T22:34:33.156Z,100694.47
2023-04-24T22:37:01.339Z,100696.19
2023-04-24T22:39:29.254Z,100707.19
2023-04-24T22:41:57.536Z,100696.03
2023-04-24T22:44:25.341Z,100704.03
2023-04-24T22:46:52.980Z,100700.25
2023-04-24T22:49:22.309Z,100698.31
2023-04-24T22:51:50.070Z,100708.63
2023-04-24T22:54:17.686Z,100712.09
2023-04-24T22:56:45.901Z,100721.78
2023-04-24T22:59:13.614Z,100716.53
2023-04-24T23:01:41.362Z,100711.25
2023-04-24T23:04:09.306Z,100715.56
2023-04-24T23:06:38.463Z,100718.13
2023-04-24T23:09:06.975Z,100718.00
2023-04-24T23:11:34.735Z,100718.00
2023-04-24T23:14:04.109Z,100718.94
2023-04-24T23:16:32.296Z,100723.97
2023-04-24T23:19:00.008Z,100724.22
2023-04-24T23:21:28.604Z,100724.44
2023-04-24T23:23:57.615Z,100721.31
2023-04-24T23:26:25.288Z,100736.28
2023-04-24T23:28:52.875Z,100740.94
2023-04-24T23:31:21.060Z,100737.06
2023-04-24T23:33:49.001Z,100738.47
2023-04-24T23:36:16.963Z,100740.63
2023-04-24T23:38:50.149Z,100750.63
2023-04-24T23:41:20.592Z,100747.16
2023-04-24T23:43:48.482Z,100755.78
2023-04-24T23:46:16.392Z,100748.84
2023-04-24T23:48:44.115Z,100735.44
2023-04-24T23:51:12.044Z,100734.41
2023-04-24T23:53:39.690Z,100733.31
2023-04-24T23:56:08.069Z,100734.16
2023-04-24T23:58:37.684Z,100740.16
